Sydney, New South Wales

1:52 AM AEST on September 27, 2016 (GMT +1000)
Croydon Park | | Change Station

Elev 26 ft 33.90 °S, 151.11 °E | Updated 7 seconds ago

Clear
Clear
49.1 °F
Feels Like 49 °F
N
0.0
Wind Variable Wind from West
Gusts 0.0 mph

Today
High -- | Low -- °F
--% Chance of Precip.
Yesterday
High -- | Low -- °F
Precip. -- in
Pressure 29.89 in
Visibility -9999.0 miles
Clouds
Windchill 49 °F
Dew Point 42 °F
Humidity 75%
Rainfall 0.00 in
Snow Depth Not available.
5:38 AM 5:55 PM
Waning Crescent, 18% visible
METAR YSSY 261530Z 27014KT CAVOK 12/03 Q1012 NOSIG
Pressure 29.89 in
Visibility -9999.0 miles
Clouds
Windchill 49 °F
Dew Point 42 °F
Humidity 75%
Rainfall 0.00 in
Snow Depth Not available.
5:38 AM 5:55 PM
Waning Crescent, 18% visible
METAR YSSY 261530Z 27014KT CAVOK 12/03 Q1012 NOSIG

10-Day Weather Forecast

Almanac

Astronomy

Sep. 27, 2016 Rise Set
Actual Time
Civil Twilight
Nautical Twilight
Astronomical Twilight
Moon
Length of Visible Light
Length of Day
Tomorrow will be .
, % of the Moon is Illuminated

Today's Extremes

Country Highs Country Lows

Community

WunderPhotos

Upload Photos

1,941,906 photos uploaded!

WunderBlog® & News

Nearby

Air Quality

  Air Quality AQ Index Pollutant
Not available.

Snow Depth

Station Depth Elevation

Earthquake Activity

City Distance Mag. Time & Date
Minimum magnitude displayed is 2.5.

Coastal Water Temperatures

Place Temperature

Stations

Nearby Weather Stations

Station Location Temp. Windchill Dew Point Humidity Wind Precip. Elev Updated Type